| time (UTC) | temp C | wind direction | speed KPH | gust KPH | rain 1hr cm | rain 24hr cm | rain mn cm | humidity % | barometer mb |
| 20260510000055 | -17 | 134 | 0.0 | 6.4 | 0.00 | 0.58 | 0.05 | 1007.1 | |
| 20260509234550 | -17 | 131 | 1.6 | 6.4 | 0.00 | 0.58 | 0.05 | 1006.8 | |
| 20260509233045 | -17 | 129 | 4.8 | 14.5 | 0.00 | 0.58 | 0.05 | 1006.8 | |
| 20260509231549 | -17 | 110 | 1.6 | 11.3 | 0.00 | 0.58 | 0.05 | 1006.8 | |
| 20260509230037 | -17 | 131 | 3.2 | 17.7 | 0.00 | 0.58 | 0.05 | 1006.7 | |
| 20260509224532 | -17 | 58 | 8.0 | 14.5 | 0.00 | 0.58 | 0.05 | 1006.6 | |
| 20260509223029 | -17 | 60 | 3.2 | 14.5 | 0.00 | 0.58 | 0.05 | 1006.6 | |
| 20260509221526 | -17 | 91 | 3.2 | 11.3 | 0.00 | 0.58 | 0.05 | 1006.6 | |
| 20260509220021 | -17 | 55 | 6.4 | 16.1 | 0.00 | 0.58 | 0.05 | 1006.9 | |
| 20260509214514 | -17 | 138 | 3.2 | 12.9 | 0.00 | 0.58 | 0.05 | 1007.0 | |
| 20260509213009 | -17 | 129 | 3.2 | 16.1 | 0.00 | 0.58 | 0.05 | 1006.8 | |
| 20260509211505 | -17 | 129 | 4.8 | 11.3 | 0.00 | 0.58 | 0.05 | 1007.0 | |
| 20260509210104 | -17 | 138 | 3.2 | 12.9 | 0.00 | 0.58 | 0.05 | 1007.1 | |
| 20260509204603 | -17 | 146 | 1.6 | 16.1 | 0.00 | 0.58 | 0.05 | 1007.2 | |
| 20260509203058 | -17 | 160 | 6.4 | 16.1 | 0.00 | 0.58 | 0.05 | 1007.5 | |
| 20260509201547 | -17 | 116 | 4.8 | 16.1 | 0.00 | 0.58 | 0.05 | 1007.5 | |
| 20260509200043 | 18 | 118 | 1.6 | 12.9 | 0.00 | 0.58 | 0.05 | 72 | 1007.7 |
| 20260509194543 | 17 | 134 | 3.2 | 12.9 | 0.00 | 0.58 | 0.05 | 72 | 1008.0 |
| 20260509193038 | 17 | 86 | 3.2 | 14.5 | 0.00 | 0.58 | 0.05 | 75 | 1008.1 |
| 20260509191535 | 17 | 123 | 4.8 | 20.9 | 0.00 | 0.58 | 0.05 | 73 | 1008.1 |
| 20260509190044 | 17 | 92 | 4.8 | 11.3 | 0.00 | 0.58 | 0.05 | 74 | 1008.5 |
| 20260509184532 | 17 | 101 | 8.0 | 19.3 | 0.00 | 0.58 | 0.05 | 75 | 1008.7 |
| 20260509183033 | 16 | 101 | 3.2 | 12.9 | 0.00 | 0.58 | 0.05 | 77 | 1008.7 |
| 20260509181525 | 15 | 124 | 8.0 | 16.1 | 0.00 | 0.58 | 0.05 | 77 | 1008.8 |
| 20260509180022 | 15 | 143 | 1.6 | 11.3 | 0.00 | 0.58 | 0.05 | 81 | 1009.0 |
| 20260509174520 | 15 | 58 | 3.2 | 16.1 | 0.00 | 0.58 | 0.05 | 81 | 1008.9 |
| 20260509173019 | 14 | 145 | 4.8 | 16.1 | 0.00 | 0.58 | 0.05 | 82 | 1008.9 |
| 20260509171516 | 13 | 163 | 3.2 | 11.3 | 0.00 | 0.58 | 0.05 | 84 | 1008.9 |
| 20260509170015 | 13 | 138 | 1.6 | 11.3 | 0.00 | 0.58 | 0.05 | 84 | 1008.8 |
| 20260509164513 | 14 | 120 | 3.2 | 6.4 | 0.00 | 0.58 | 0.05 | 85 | 1008.6 |
| 20260509163010 | 13 | 51 | 3.2 | 9.7 | 0.00 | 0.58 | 0.05 | 87 | 1008.6 |
| 20260509161508 | 13 | 82 | 1.6 | 6.4 | 0.00 | 0.58 | 0.05 | 89 | 1008.6 |
| 20260509160004 | 12 | 141 | 0.0 | 4.8 | 0.00 | 0.58 | 0.05 | 92 | 1008.5 |
| 20260509154600 | 11 | 134 | 1.6 | 4.8 | 0.03 | 0.58 | 0.05 | 92 | 1008.6 |
| 20260509153101 | 11 | 142 | 0.0 | 4.8 | 0.03 | 0.58 | 0.05 | 92 | 1008.5 |
| 20260509151557 | 11 | 133 | 1.6 | 6.4 | 0.05 | 0.58 | 0.05 | 92 | 1008.6 |
| 20260509150056 | 11 | 134 | 0.0 | 4.8 | 0.05 | 0.58 | 0.05 | 92 | 1008.6 |
| 20260509144556 | 11 | 65 | 3.2 | 8.0 | 0.03 | 0.58 | 0.03 | 92 | 1008.4 |
| 20260509143102 | 11 | 158 | 0.0 | 9.7 | 0.03 | 0.58 | 0.03 | 92 | 1008.5 |
| 20260509141553 | 11 | 72 | 0.0 | 11.3 | 0.00 | 0.56 | 0.00 | 92 | 1008.5 |
| 20260509140050 | 11 | 129 | 1.6 | 8.0 | 0.00 | 0.56 | 0.00 | 92 | 1008.6 |
| 20260509134553 | 10 | 127 | 1.6 | 6.4 | 0.00 | 0.56 | 0.00 | 92 | 1008.6 |
| 20260509133057 | 10 | 69 | 1.6 | 8.0 | 0.00 | 0.56 | 0.00 | 92 | 1008.6 |
| 20260509131544 | 10 | 74 | 1.6 | 8.0 | 0.00 | 0.56 | 0.00 | 92 | 1008.8 |
| 20260509130044 | 10 | 63 | 3.2 | 11.3 | 0.00 | 0.56 | 0.00 | 92 | 1008.8 |
| 20260509124538 | 10 | 159 | 0.0 | 6.4 | 0.00 | 0.56 | 0.00 | 92 | 1009.0 |
| 20260509123035 | 10 | 117 | 0.0 | 4.8 | 0.00 | 0.56 | 0.00 | 92 | 1009.0 |
| 20260509121539 | 10 | 65 | 1.6 | 4.8 | 0.00 | 0.56 | 0.00 | 92 | 1009.1 |
| 20260509120036 | 10 | 73 | 1.6 | 4.8 | 0.00 | 0.56 | 0.00 | 92 | 1009.1 |
| 20260509114534 | -17 | 0.0 | 0.0 | 0.00 | 0.56 | 0.00 | 1009.1 | ||
| 20260509113026 | -17 | 0.0 | 0.0 | 0.00 | 0.56 | 0.00 | 1008.9 | ||
| 20260509111521 | -17 | 0.0 | 0.0 | 0.00 | 0.56 | 0.00 | 1008.9 | ||
| 20260509110017 | -17 | 0.0 | 0.0 | 0.00 | 0.56 | 0.00 | 1008.8 | ||
| 20260509104513 | -17 | 0.0 | 0.0 | 0.00 | 0.56 | 0.00 | 1008.7 | ||
| 20260509103008 | -17 | 0.0 | 0.0 | 0.00 | 0.56 | 0.00 | 1008.6 | ||
| 20260509101503 | -17 | 0.0 | 0.0 | 0.00 | 0.56 | 0.00 | 1008.7 | ||
| 20260509100111 | -17 | 0.0 | 0.0 | 0.00 | 0.56 | 0.00 | 1008.7 | ||
| 20260509094557 | 9 | 60 | 1.6 | 6.4 | 0.00 | 0.56 | 0.00 | 91 | 1008.8 |
| 20260509093052 | 10 | 71 | 0.0 | 6.4 | 0.00 | 0.56 | 0.00 | 91 | 1009.0 |
| 20260509091552 | 9 | 75 | 0.0 | 3.2 | 0.00 | 0.56 | 0.00 | 91 | 1009.2 |
| 20260509090049 | 9 | 70 | 1.6 | 4.8 | 0.00 | 0.56 | 0.00 | 91 | 1009.2 |
| 20260509084551 | 9 | 58 | 3.2 | 4.8 | 0.00 | 0.56 | 0.00 | 92 | 1009.3 |
| 20260509083049 | 8 | 104 | 0.0 | 3.2 | 0.00 | 0.56 | 0.00 | 92 | 1009.4 |
| 20260509081545 | 8 | 140 | 0.0 | 0.0 | 0.00 | 0.56 | 0.00 | 92 | 1009.5 |
| 20260509080106 | 9 | 139 | 0.0 | 0.0 | 0.00 | 0.56 | 0.00 | 92 | 1009.6 |
| 20260509074544 | 9 | 140 | 0.0 | 0.0 | 0.00 | 0.56 | 0.00 | 92 | 1009.3 |
| 20260509073135 | 9 | 140 | 0.0 | 4.8 | 0.00 | 0.56 | 0.00 | 92 | 1009.4 |
| 20260509071545 | 9 | 40 | 0.0 | 1.6 | 0.00 | 0.56 | 0.00 | 92 | 1009.3 |
| 20260509070042 | 9 | 40 | 0.0 | 0.0 | 0.00 | 0.56 | 0.00 | 92 | 1009.1 |
| 20260509064547 | 9 | 40 | 0.0 | 1.6 | 0.00 | 0.56 | 0.00 | 92 | 1009.1 |
| 20260509063040 | 9 | 39 | 0.0 | 3.2 | 0.00 | 0.56 | 0.00 | 92 | 1009.3 |
| 20260509061546 | 9 | 257 | 0.0 | 0.0 | 0.00 | 0.56 | 0.00 | 92 | 1009.6 |
| 20260509060035 | 9 | 257 | 0.0 | 0.0 | 0.00 | 0.56 | 0.00 | 92 | 1009.8 |
| 20260509054537 | 9 | 257 | 0.0 | 0.0 | 0.00 | 0.56 | 0.00 | 92 | 1009.8 |
| 20260509053033 | 9 | 257 | 0.0 | 0.0 | 0.00 | 0.56 | 0.00 | 92 | 1010.1 |
| 20260509051529 | 9 | 257 | 0.0 | 0.0 | 0.00 | 0.56 | 0.00 | 92 | 1010.3 |
| 20260509050036 | 9 | 257 | 0.0 | 0.0 | 0.00 | 0.56 | 0.00 | 92 | 1010.4 |
| 20260509044527 | 9 | 257 | 0.0 | 0.0 | 0.00 | 0.56 | 0.00 | 92 | 1010.4 |
| 20260509043039 | 9 | 257 | 0.0 | 0.0 | 0.00 | 0.56 | 0.00 | 92 | 1010.4 |
| 20260509041522 | 9 | 257 | 0.0 | 0.0 | 0.00 | 0.56 | 0.00 | 92 | 1010.7 |
| 20260509040022 | 9 | 257 | 0.0 | 0.0 | 0.00 | 0.56 | 0.00 | 91 | 1010.7 |
| 20260509034520 | 9 | 257 | 0.0 | 0.0 | 0.00 | 0.56 | 0.56 | 91 | 1011.2 |
| 20260509033022 | 9 | 257 | 0.0 | 0.0 | 0.00 | 0.56 | 0.56 | 91 | 1011.4 |
| 20260509031520 | 10 | 257 | 0.0 | 0.0 | 0.00 | 0.56 | 0.56 | 91 | 1011.6 |
| 20260509030020 | 10 | 257 | 0.0 | 0.0 | 0.00 | 0.56 | 0.56 | 90 | 1011.8 |
| 20260509024518 | 10 | 257 | 0.0 | 0.0 | 0.53 | 0.56 | 0.56 | 90 | 1012.0 |
| 20260509023022 | 10 | 257 | 0.0 | 1.6 | 0.53 | 0.56 | 0.56 | 89 | 1012.0 |
| 20260509021521 | 10 | 257 | 0.0 | 1.6 | 0.53 | 0.56 | 0.56 | 88 | 1012.1 |
| 20260509020015 | 10 | 259 | 0.0 | 0.0 | 0.53 | 0.56 | 0.56 | 86 | 1011.9 |
| 20260509014514 | 11 | 259 | 0.0 | 0.0 | 0.00 | 0.69 | 0.03 | 85 | 1011.6 |
| 20260509013035 | 11 | 259 | 0.0 | 3.2 | 0.00 | 0.69 | 0.03 | 84 | 1011.4 |
| 20260509011512 | 11 | 140 | 0.0 | 1.6 | 0.00 | 0.69 | 0.03 | 83 | 1011.1 |
| 20260509010019 | 11 | 139 | 0.0 | 0.0 | 0.00 | 0.69 | 0.03 | 80 | 1010.8 |
| 20260509004527 | 11 | 140 | 0.0 | 0.0 | 0.00 | 1.07 | 0.03 | 79 | 1010.6 |
| 20260509003011 | 11 | 140 | 0.0 | 1.6 | 0.00 | 1.07 | 0.03 | 79 | 1010.2 |
| 20260509001510 | 11 | 139 | 0.0 | 0.0 | 0.00 | 1.07 | 0.03 | 79 | 1010.3 |